Time;durP1;ratioP1;P1;durP2;ratioP2;P2;SDS_P1;SDS_P2;PMS_P1;PMS_P2;Temp;Humidity;BMP_temperature;BMP_pressure;BME280_temperature;BME280_humidity;BME280_pressure;Samples;Min_cycle;Max_cycle;Signal;HPM_P1;HPM_P2
2024/01/16 00:02:03;;;;;;;5.78;3.67;;;0.00;92.20;;;;;;5027517;28;20079;-44
2024/01/16 00:04:31;;;;;;;6.35;3.80;;;0.00;92.30;;;;;;5027622;28;20125;-44
2024/01/16 00:06:57;;;;;;;5.95;2.80;;;0.00;92.30;;;;;;5024728;28;20034;-43
2024/01/16 00:09:24;;;;;;;5.32;1.98;;;0.00;92.20;;;;;;5027105;28;20057;-42
2024/01/16 00:11:51;;;;;;;4.20;1.75;;;-3276.70;92.20;;;;;;5026967;28;20090;-45
2024/01/16 00:14:18;;;;;;;3.15;1.75;;;-3276.70;92.20;;;;;;5020092;28;20116;-41
2024/01/16 00:16:46;;;;;;;4.30;2.47;;;-3276.70;92.20;;;;;;5028913;28;20833;-41
2024/01/16 00:19:13;;;;;;;4.57;2.08;;;-3276.70;92.40;;;;;;5031104;28;20030;-42
2024/01/16 00:21:55;;;;;;;3.90;1.92;;;-3276.70;92.60;;;;;;5023346;28;20029;-41
2024/01/16 00:24:23;;;;;;;1.55;0.50;;;-3276.70;92.70;;;;;;5030087;28;20136;-40
2024/01/16 00:26:54;;;;;;;1.33;0.80;;;0.00;93.10;;;;;;5032604;27;20125;-42
2024/01/16 00:29:21;;;;;;;2.60;0.80;;;0.00;93.40;;;;;;5030347;28;20075;-42
2024/01/16 00:31:48;;;;;;;0.80;0.50;;;0.10;93.50;;;;;;5021190;28;20101;-43
2024/01/16 00:34:14;;;;;;;3.20;0.70;;;0.10;93.60;;;;;;5027816;28;20086;-41
2024/01/16 00:36:43;;;;;;;5.63;1.20;;;0.20;93.50;;;;;;5029636;28;20030;-41
2024/01/16 00:39:09;;;;;;;4.60;0.55;;;0.10;93.30;;;;;;5030678;28;20419;-43
2024/01/16 00:41:35;;;;;;;2.38;0.40;;;0.10;93.30;;;;;;5030762;28;20112;-42
2024/01/16 00:44:02;;;;;;;1.33;0.52;;;0.10;93.20;;;;;;5013388;28;20128;-44
2024/01/16 00:46:30;;;;;;;10.68;1.63;;;0.10;93.10;;;;;;5025401;28;20053;-43
2024/01/16 00:48:57;;;;;;;4.85;0.50;;;0.10;93.00;;;;;;5030518;28;20017;-41
2024/01/16 00:51:23;;;;;;;4.28;0.77;;;0.10;93.00;;;;;;5029393;28;20033;-40
2024/01/16 00:53:53;;;;;;;0.90;0.40;;;0.20;92.90;;;;;;5030350;28;20096;-40
2024/01/16 00:56:36;;;;;;;4.00;0.93;;;0.10;92.50;;;;;;5024508;28;20112;-42
2024/01/16 00:59:03;;;;;;;2.20;0.88;;;0.20;92.60;;;;;;5030089;28;20030;-40
2024/01/16 01:01:46;;;;;;;5.15;0.77;;;0.20;92.40;;;;;;5030018;28;20065;-40
2024/01/16 01:04:12;;;;;;;2.40;1.08;;;0.20;92.40;;;;;;5020498;28;20410;-40
2024/01/16 01:06:41;;;;;;;7.78;2.45;;;0.20;92.60;;;;;;5030469;28;20037;-41
2024/01/16 01:09:07;;;;;;;3.88;1.10;;;0.20;92.80;;;;;;5028636;28;20029;-40
2024/01/16 01:11:33;;;;;;;2.92;0.80;;;0.20;93.00;;;;;;5028941;28;20021;-42
2024/01/16 01:13:59;;;;;;;4.25;0.93;;;0.20;93.10;;;;;;5029478;28;20029;-43
2024/01/16 01:16:26;;;;;;;2.90;1.00;;;0.10;93.40;;;;;;5030643;28;20036;-42
2024/01/16 01:18:53;;;;;;;9.23;1.35;;;0.20;94.50;;;;;;5024795;28;20052;-41
2024/01/16 01:21:20;;;;;;;6.57;0.80;;;0.20;94.80;;;;;;5030205;28;20022;-43
2024/01/16 01:23:46;;;;;;;3.05;1.00;;;0.20;94.90;;;;;;5029923;28;20431;-42
2024/01/16 01:26:17;;;;;;;2.45;0.75;;;0.20;95.10;;;;;;5045247;27;20080;-42
2024/01/16 01:28:44;;;;;;;3.88;1.10;;;0.20;95.10;;;;;;5023948;28;20109;-44
2024/01/16 01:31:12;;;;;;;3.67;0.77;;;0.10;95.20;;;;;;5029913;28;20498;-43
2024/01/16 01:33:40;;;;;;;3.85;0.70;;;0.10;95.20;;;;;;5030070;28;20022;-45
2024/01/16 01:36:07;;;;;;;5.13;0.90;;;0.00;95.20;;;;;;5028558;28;20042;-45
2024/01/16 01:38:33;;;;;;;3.97;0.80;;;0.00;95.20;;;;;;5029857;28;20419;-45
2024/01/16 01:41:02;;;;;;;4.22;0.88;;;0.00;95.20;;;;;;5029798;28;20032;-41
2024/01/16 01:43:28;;;;;;;3.70;1.30;;;0.10;95.20;;;;;;5029853;28;20037;-41
2024/01/16 01:46:21;;;;;;;6.18;1.08;;;0.10;95.00;;;;;;5027339;28;20076;-41
2024/01/16 01:48:52;;;;;;;5.30;2.38;;;0.20;95.00;;;;;;5029757;28;20053;-43
2024/01/16 01:51:19;;;;;;;2.58;0.68;;;0.20;94.90;;;;;;5005190;28;20037;-42
2024/01/16 01:53:49;;;;;;;3.42;0.80;;;0.10;94.60;;;;;;5029599;28;20044;-43
2024/01/16 01:56:19;;;;;;;10.85;1.73;;;0.10;94.50;;;;;;5011915;28;20021;-46
2024/01/16 01:58:53;;;;;;;5.72;1.13;;;0.20;94.50;;;;;;5029683;28;20044;-43
2024/01/16 02:01:24;;;;;;;3.08;1.17;;;0.20;94.50;;;;;;5029535;28;20026;-41
2024/01/16 02:03:54;;;;;;;3.33;0.90;;;0.30;94.30;;;;;;5029469;28;20113;-41
2024/01/16 02:06:20;;;;;;;5.38;1.25;;;0.30;94.30;;;;;;5029587;28;20022;-43
2024/01/16 02:08:48;;;;;;;2.58;0.60;;;0.30;94.00;;;;;;5029448;28;20013;-44
2024/01/16 02:11:14;;;;;;;5.15;2.00;;;0.20;93.70;;;;;;5027660;28;20110;-46
2024/01/16 02:13:41;;;;;;;4.88;1.23;;;0.20;93.70;;;;;;5011808;28;20017;-46
2024/01/16 02:16:21;;;;;;;3.38;0.80;;;0.20;93.50;;;;;;5010273;28;20327;-42
2024/01/16 02:18:48;;;;;;;4.05;1.13;;;0.10;93.30;;;;;;5027715;28;20009;-42
2024/01/16 02:21:21;;;;;;;3.35;1.40;;;0.00;93.10;;;;;;5029418;28;20037;-42
2024/01/16 02:23:49;;;;;;;4.43;1.25;;;0.00;93.00;;;;;;5029019;28;20030;-42
2024/01/16 02:26:15;;;;;;;5.28;0.90;;;0.00;93.00;;;;;;5023860;28;20032;-42
2024/01/16 02:28:44;;;;;;;7.32;0.77;;;0.00;92.80;;;;;;5011540;28;20025;-42
2024/01/16 02:31:15;;;;;;;2.30;0.80;;;-3276.70;92.40;;;;;;5029499;28;20021;-43
2024/01/16 02:33:42;;;;;;;5.53;0.90;;;-3276.70;92.50;;;;;;5010214;28;20037;-43
2024/01/16 02:36:10;;;;;;;2.85;0.90;;;-3276.70;92.70;;;;;;5025037;28;20086;-43
2024/01/16 02:38:37;;;;;;;2.80;0.68;;;-3276.60;92.40;;;;;;5028841;28;20033;-41
2024/01/16 02:41:04;;;;;;;2.38;0.77;;;-3276.50;92.20;;;;;;5020062;28;20038;-43
2024/01/16 02:43:31;;;;;;;5.15;1.38;;;-3276.50;92.20;;;;;;5029013;28;20033;-41
2024/01/16 02:45:58;;;;;;;2.47;0.90;;;-3276.40;92.10;;;;;;5028753;28;20076;-41
2024/01/16 02:48:25;;;;;;;2.67;0.70;;;-3276.40;92.10;;;;;;5023176;28;20466;-41
2024/01/16 02:50:52;;;;;;;6.68;1.25;;;-3276.40;92.20;;;;;;5028483;28;20009;-44
2024/01/16 02:53:19;;;;;;;3.67;0.82;;;-3276.40;92.30;;;;;;5000657;28;20452;-43
2024/01/16 02:55:45;;;;;;;4.07;1.40;;;-3276.40;92.30;;;;;;5028964;28;20033;-42
2024/01/16 02:58:12;;;;;;;5.45;1.08;;;-3276.50;92.20;;;;;;5027890;28;20358;-43
2024/01/16 03:00:39;;;;;;;4.10;1.00;;;-3276.50;92.20;;;;;;5028466;28;20052;-44
2024/01/16 03:03:05;;;;;;;3.10;0.70;;;-3276.50;92.20;;;;;;5027429;28;20465;-41
2024/01/16 03:05:31;;;;;;;4.00;0.80;;;-3276.50;92.10;;;;;;5024676;28;20030;-42
2024/01/16 03:08:00;;;;;;;1.92;0.77;;;-3276.50;91.90;;;;;;5022436;28;20316;-44
2024/01/16 03:10:27;;;;;;;3.33;0.82;;;-3276.50;91.80;;;;;;5028832;28;20478;-41
2024/01/16 03:12:54;;;;;;;3.80;0.90;;;-3276.50;91.60;;;;;;5028240;28;20034;-40
2024/01/16 03:15:21;;;;;;;3.80;0.95;;;-3276.50;91.50;;;;;;5024121;28;20043;-42
2024/01/16 03:17:48;;;;;;;5.20;0.90;;;-3276.60;91.60;;;;;;5028507;28;20064;-42
2024/01/16 03:20:18;;;;;;;4.32;0.80;;;-3276.60;91.60;;;;;;5028472;28;20470;-44
2024/01/16 03:22:45;;;;;;;;;;;-3276.50;91.50;;;;;;5026091;28;20034;-46
2024/01/16 03:25:12;;;;;;;11.95;1.58;;;-3276.50;91.80;;;;;;5028490;28;19961;-41
2024/01/16 03:27:39;;;;;;;5.63;1.98;;;-3276.60;92.10;;;;;;5009845;28;20029;-43
2024/01/16 03:30:08;;;;;;;8.85;2.65;;;-3276.60;92.10;;;;;;5025175;28;20056;-41
2024/01/16 03:32:38;;;;;;;11.75;4.93;;;-3276.70;92.40;;;;;;5020800;28;20013;-44
2024/01/16 03:35:07;;;;;;;13.85;4.32;;;0.10;92.90;;;;;;5017312;28;20034;-46
2024/01/16 03:37:34;;;;;;;9.63;2.80;;;0.20;93.00;;;;;;5028820;28;20026;-42
2024/01/16 03:40:01;;;;;;;2.70;1.00;;;0.20;93.40;;;;;;5026901;28;20072;-43
2024/01/16 03:42:27;;;;;;;2.70;0.85;;;0.30;93.80;;;;;;5010988;28;20034;-42
2024/01/16 03:44:54;;;;;;;4.60;1.13;;;0.30;94.00;;;;;;5028275;28;20373;-42
2024/01/16 03:47:22;;;;;;;2.17;0.60;;;0.40;94.20;;;;;;5025418;28;20058;-42
2024/01/16 03:49:49;;;;;;;2.53;0.45;;;0.40;94.30;;;;;;5005147;28;20365;-42
2024/01/16 03:52:16;;;;;;;2.70;0.52;;;0.30;94.30;;;;;;5007891;28;20030;-41
2024/01/16 03:54:43;;;;;;;1.80;0.45;;;0.30;94.40;;;;;;5027584;28;20030;-41
2024/01/16 03:57:09;;;;;;;3.03;0.57;;;0.30;94.40;;;;;;5013955;28;20033;-42
2024/01/16 03:59:38;;;;;;;1.33;0.50;;;0.30;94.40;;;;;;5030373;28;20365;-42
2024/01/16 04:02:05;;;;;;;3.13;0.82;;;0.30;94.40;;;;;;5018090;28;20037;-43
2024/01/16 04:04:31;;;;;;;2.13;0.57;;;0.30;94.20;;;;;;5028493;28;20082;-44
2024/01/16 04:06:59;;;;;;;1.90;0.60;;;0.20;94.10;;;;;;5008692;28;20025;-41
2024/01/16 04:09:26;;;;;;;1.25;0.35;;;0.20;93.80;;;;;;5031517;28;20038;-42
2024/01/16 04:11:54;;;;;;;3.83;0.60;;;0.20;93.80;;;;;;5024230;28;20033;-42
2024/01/16 04:14:23;;;;;;;3.65;0.75;;;0.10;93.70;;;;;;5031226;28;20058;-45
2024/01/16 04:16:50;;;;;;;2.40;0.60;;;0.00;93.50;;;;;;5031615;28;20081;-42
2024/01/16 04:19:16;;;;;;;3.45;0.60;;;0.00;93.30;;;;;;5030920;28;20028;-41
2024/01/16 04:21:43;;;;;;;3.65;0.95;;;0.00;93.30;;;;;;5025643;28;20457;-42
2024/01/16 04:24:13;;;;;;;5.07;0.60;;;0.00;93.40;;;;;;5030972;28;20033;-41
2024/01/16 04:26:40;;;;;;;3.17;0.88;;;0.00;93.30;;;;;;5066527;27;20031;-43
2024/01/16 04:29:08;;;;;;;3.83;0.82;;;0.00;93.30;;;;;;5028671;28;20030;-41
2024/01/16 04:31:41;;;;;;;7.40;0.90;;;0.00;93.30;;;;;;5031059;28;20018;-41
2024/01/16 04:34:06;;;;;;;2.25;1.05;;;0.00;93.20;;;;;;5031321;28;20026;-42
2024/01/16 04:36:33;;;;;;;2.67;1.02;;;0.00;93.10;;;;;;5031123;28;20423;-42
2024/01/16 04:39:00;;;;;;;3.20;0.60;;;0.00;92.90;;;;;;5030211;28;20017;-42
2024/01/16 04:41:25;;;;;;;4.10;0.80;;;0.00;92.90;;;;;;5031049;28;20048;-42
2024/01/16 04:43:51;;;;;;;4.13;1.05;;;0.00;92.80;;;;;;5030800;28;20438;-41
2024/01/16 04:46:18;;;;;;;4.75;1.00;;;0.00;92.80;;;;;;5030936;28;20050;-43
2024/01/16 04:48:45;;;;;;;3.05;0.85;;;0.00;92.50;;;;;;5014788;28;20030;-43
2024/01/16 04:51:12;;;;;;;6.97;2.22;;;0.00;92.50;;;;;;5011044;28;20022;-43
2024/01/16 04:53:40;;;;;;;4.25;1.10;;;-3276.70;92.50;;;;;;5016231;28;20370;-41
2024/01/16 04:56:07;;;;;;;4.55;0.98;;;-3276.70;92.60;;;;;;5027931;28;20017;-42
2024/01/16 04:58:34;;;;;;;5.18;1.15;;;-3276.70;92.60;;;;;;5030794;28;20029;-40
2024/01/16 05:01:01;;;;;;;8.52;2.28;;;-3276.70;92.70;;;;;;5030395;28;20389;-40
2024/01/16 05:03:27;;;;;;;23.35;2.95;;;-3276.70;92.60;;;;;;5025824;28;20022;-41
2024/01/16 05:05:56;;;;;;;8.10;2.28;;;-3276.60;92.40;;;;;;5027735;28;20045;-40
2024/01/16 05:08:25;;;;;;;7.22;1.45;;;-3276.60;92.50;;;;;;5029993;28;20034;-40
2024/01/16 05:10:51;;;;;;;10.20;1.55;;;-3276.70;92.60;;;;;;5030043;28;20481;-40
2024/01/16 05:13:19;;;;;;;5.72;1.20;;;0.00;92.70;;;;;;5030455;28;20025;-40
2024/01/16 05:15:45;;;;;;;4.82;1.20;;;-3276.70;92.40;;;;;;5027188;28;20045;-41
2024/01/16 05:18:12;;;;;;;7.15;2.67;;;-3276.70;92.50;;;;;;5030411;28;20029;-41
2024/01/16 05:20:38;;;;;;;6.47;1.45;;;-3276.70;92.40;;;;;;5017862;27;20098;-40
2024/01/16 05:23:05;;;;;;;6.00;1.23;;;-3276.70;92.40;;;;;;4994713;28;20145;-42
2024/01/16 05:25:32;;;;;;;3.90;1.00;;;-3276.70;92.60;;;;;;5017282;28;20021;-43
2024/01/16 05:28:01;;;;;;;6.38;1.30;;;0.00;92.70;;;;;;5041713;27;20045;-40
2024/01/16 05:30:28;;;;;;;9.02;2.38;;;-3276.70;92.60;;;;;;5011880;28;20121;-42
2024/01/16 05:33:00;;;;;;;4.25;1.40;;;-3276.70;92.60;;;;;;4995690;28;20038;-41
2024/01/16 05:35:28;;;;;;;6.38;1.15;;;-3276.60;92.70;;;;;;5010041;28;20082;-40
2024/01/16 05:37:55;;;;;;;4.13;1.00;;;-3276.70;92.80;;;;;;5021336;28;20029;-43
2024/01/16 05:40:22;;;;;;;4.30;0.95;;;-3276.70;92.70;;;;;;5014672;28;20055;-43
2024/01/16 05:42:49;;;;;;;6.93;1.10;;;-3276.60;92.70;;;;;;5010251;28;20034;-42
2024/01/16 05:45:17;;;;;;;4.82;1.58;;;-3276.70;92.90;;;;;;5014956;28;20044;-42
2024/01/16 05:47:46;;;;;;;5.28;1.60;;;-3276.70;92.90;;;;;;5010174;28;20148;-43
2024/01/16 05:50:13;;;;;;;3.60;1.00;;;-3276.70;93.10;;;;;;5016103;28;20363;-40
2024/01/16 05:52:40;;;;;;;4.20;0.95;;;0.00;93.30;;;;;;5025468;28;20354;-42
2024/01/16 05:55:07;;;;;;;4.97;1.40;;;0.00;93.40;;;;;;5022446;28;20086;-42
2024/01/16 05:57:33;;;;;;;5.95;1.08;;;0.00;93.50;;;;;;5019694;28;20124;-40
2024/01/16 06:00:05;;;;;;;8.75;4.35;;;0.00;93.60;;;;;;5006648;28;20104;-40
2024/01/16 06:02:34;;;;;;;5.88;1.23;;;0.10;93.70;;;;;;5021437;28;20033;-42
2024/01/16 06:05:00;;;;;;;5.53;1.83;;;0.10;93.70;;;;;;5019697;28;20041;-40
2024/01/16 06:07:26;;;;;;;5.47;1.30;;;0.10;93.70;;;;;;5013592;28;20034;-40
2024/01/16 06:09:53;;;;;;;6.07;1.73;;;0.10;93.80;;;;;;5018824;28;20421;-40
2024/01/16 06:12:18;;;;;;;6.35;1.00;;;0.20;93.80;;;;;;5018395;28;20518;-40
2024/01/16 06:14:44;;;;;;;8.68;2.58;;;0.20;93.90;;;;;;5024453;28;20064;-41
2024/01/16 06:17:11;;;;;;;4.32;1.75;;;0.20;93.90;;;;;;5022989;28;20033;-39
2024/01/16 06:19:37;;;;;;;4.30;1.42;;;0.20;93.90;;;;;;5023515;28;20055;-41
2024/01/16 06:22:09;;;;;;;8.43;1.60;;;0.30;94.00;;;;;;5017642;28;20109;-39
2024/01/16 06:24:36;;;;;;;3.55;1.20;;;0.30;94.00;;;;;;5025813;28;20125;-40
2024/01/16 06:27:07;;;;;;;8.93;1.38;;;0.40;94.00;;;;;;5026238;27;20029;-40
2024/01/16 06:29:33;;;;;;;8.88;1.13;;;0.30;93.60;;;;;;5009427;28;20025;-43
2024/01/16 06:32:00;;;;;;;5.85;1.05;;;0.20;93.50;;;;;;5009238;28;20125;-39
2024/01/16 06:34:28;;;;;;;4.15;1.20;;;0.20;93.50;;;;;;5009061;28;20036;-40
2024/01/16 06:36:55;;;;;;;5.60;1.10;;;0.20;93.40;;;;;;5010664;28;20458;-40
2024/01/16 06:39:22;;;;;;;9.23;1.40;;;0.20;93.40;;;;;;5013039;28;20025;-39
2024/01/16 06:41:51;;;;;;;6.43;1.42;;;0.20;93.20;;;;;;5008793;28;20026;-39
2024/01/16 06:44:18;;;;;;;9.60;1.38;;;0.10;93.20;;;;;;5010187;28;20038;-39
2024/01/16 06:46:46;;;;;;;5.13;1.38;;;0.20;93.20;;;;;;5009172;28;20471;-39
2024/01/16 06:49:12;;;;;;;9.38;1.38;;;0.10;92.90;;;;;;4992014;28;20025;-39
2024/01/16 06:51:42;;;;;;;8.52;2.42;;;0.10;92.90;;;;;;5009100;28;20095;-41
2024/01/16 06:54:07;;;;;;;6.03;1.45;;;0.10;92.90;;;;;;4993801;28;20411;-39
2024/01/16 06:56:34;;;;;;;3.42;0.82;;;0.10;92.70;;;;;;5016321;28;20065;-39
2024/01/16 06:59:04;;;;;;;4.95;1.35;;;0.10;92.50;;;;;;5016250;28;20021;-39
2024/01/16 07:01:31;;;;;;;6.18;1.10;;;0.10;92.50;;;;;;5024365;28;20806;-39
2024/01/16 07:03:58;;;;;;;8.63;1.75;;;0.10;92.50;;;;;;5051114;27;20060;-39
2024/01/16 07:06:25;;;;;;;4.07;1.52;;;0.20;92.40;;;;;;5014314;28;20311;-39
2024/01/16 07:08:51;;;;;;;7.55;1.80;;;0.20;92.40;;;;;;5075814;27;20500;-41
2024/01/16 07:11:18;;;;;;;4.97;1.10;;;0.20;92.30;;;;;;5015065;28;20778;-39
2024/01/16 07:13:45;;;;;;;3.45;1.27;;;0.20;92.10;;;;;;5011797;28;20493;-39
2024/01/16 07:16:15;;;;;;;4.80;1.27;;;0.10;92.10;;;;;;5013797;28;20038;-39
2024/01/16 07:18:42;;;;;;;4.88;1.85;;;0.20;92.20;;;;;;5010755;28;20022;-40
2024/01/16 07:21:19;;;;;;;5.13;1.17;;;0.20;92.20;;;;;;5022150;28;20049;-39
2024/01/16 07:23:45;;;;;;;4.18;0.77;;;0.20;92.30;;;;;;5013444;28;20026;-39
2024/01/16 07:26:12;;;;;;;5.43;0.90;;;0.20;92.40;;;;;;5012135;27;20030;-39
2024/01/16 07:28:42;;;;;;;4.10;1.25;;;0.20;92.50;;;;;;5017612;27;20078;-40
2024/01/16 07:31:09;;;;;;;6.65;1.33;;;0.20;92.70;;;;;;5010874;27;20200;-39
2024/01/16 07:33:36;;;;;;;7.43;1.25;;;0.30;92.90;;;;;;5017694;27;20030;-40
2024/01/16 07:36:03;;;;;;;4.07;1.20;;;0.20;92.80;;;;;;5029689;27;20038;-40
2024/01/16 07:38:30;;;;;;;4.18;1.00;;;0.30;93.00;;;;;;5002942;28;20030;-40
2024/01/16 07:40:56;;;;;;;3.63;0.90;;;0.30;93.20;;;;;;5021517;28;20128;-40
2024/01/16 07:43:22;;;;;;;4.78;1.27;;;0.40;93.20;;;;;;5017148;27;20109;-40
2024/01/16 07:45:48;;;;;;;7.00;1.67;;;0.40;93.50;;;;;;5013634;27;20053;-40
2024/01/16 07:48:15;;;;;;;9.48;3.05;;;0.40;93.50;;;;;;5026919;27;20021;-41
2024/01/16 07:50:41;;;;;;;5.32;1.73;;;0.50;93.60;;;;;;5078284;27;20048;-43
2024/01/16 07:53:11;;;;;;;6.28;1.60;;;0.50;93.50;;;;;;5020651;28;20037;-41
2024/01/16 07:55:38;;;;;;;5.70;1.40;;;0.50;93.60;;;;;;5083486;27;20042;-42
2024/01/16 07:58:06;;;;;;;7.82;1.40;;;0.50;93.80;;;;;;5014841;27;20118;-42
2024/01/16 08:00:35;;;;;;;7.45;2.15;;;0.60;93.90;;;;;;5020689;27;20099;-42
2024/01/16 08:03:06;;;;;;;7.35;1.95;;;0.60;93.90;;;;;;5016429;28;20022;-42
2024/01/16 08:05:33;;;;;;;6.57;1.42;;;0.60;93.90;;;;;;5025429;27;20041;-41
2024/01/16 08:08:00;;;;;;;4.85;1.30;;;0.60;94.10;;;;;;5030937;27;20053;-42
2024/01/16 08:10:26;;;;;;;7.93;1.75;;;0.60;94.00;;;;;;5023396;27;20040;-42
2024/01/16 08:12:52;;;;;;;4.57;1.52;;;0.70;94.10;;;;;;5026460;27;20042;-42
2024/01/16 08:15:19;;;;;;;5.82;1.40;;;0.60;94.00;;;;;;5024788;27;20086;-42
2024/01/16 08:17:48;;;;;;;6.72;2.33;;;0.70;94.10;;;;;;5020318;27;20033;-42
2024/01/16 08:20:16;;;;;;;5.75;2.22;;;0.70;94.10;;;;;;4995468;28;20041;-43
2024/01/16 08:22:41;;;;;;;4.97;1.50;;;0.70;94.10;;;;;;5028044;28;20108;-43
2024/01/16 08:25:08;;;;;;;9.10;2.00;;;0.70;94.00;;;;;;5016611;28;20427;-43
2024/01/16 08:27:37;;;;;;;5.80;2.95;;;0.70;94.00;;;;;;5014990;28;20048;-43
2024/01/16 08:30:05;;;;;;;7.63;1.98;;;0.70;94.00;;;;;;5020869;27;20032;-43
2024/01/16 08:32:34;;;;;;;9.30;3.40;;;0.70;93.90;;;;;;5015117;28;20073;-46
2024/01/16 08:35:02;;;;;;;8.32;1.95;;;0.70;93.80;;;;;;4995605;28;20032;-44
2024/01/16 08:37:29;;;;;;;5.82;1.77;;;0.80;93.80;;;;;;5014030;28;20129;-45
2024/01/16 08:39:56;;;;;;;8.43;2.45;;;0.80;93.80;;;;;;5021228;27;20053;-46
2024/01/16 08:42:23;;;;;;;5.10;1.50;;;0.80;93.70;;;;;;5020719;28;20022;-47
2024/01/16 08:44:53;;;;;;;11.35;2.00;;;0.80;93.50;;;;;;5034625;27;20038;-46
2024/01/16 08:47:20;;;;;;;4.88;1.30;;;0.80;93.50;;;;;;5012281;28;20089;-46
2024/01/16 08:49:48;;;;;;;5.30;0.93;;;0.80;93.40;;;;;;5017848;27;20049;-46
2024/01/16 08:52:17;;;;;;;7.00;1.35;;;0.80;93.40;;;;;;5025822;27;20436;-48
2024/01/16 08:54:44;;;;;;;6.18;1.38;;;0.80;93.30;;;;;;5019435;28;20052;-48
2024/01/16 08:57:13;;;;;;;2.65;1.08;;;0.80;93.10;;;;;;5011331;28;20110;-47
2024/01/16 08:59:40;;;;;;;4.72;2.08;;;0.90;93.10;;;;;;5022955;27;20029;-49
2024/01/16 09:02:07;;;;;;;5.85;1.70;;;0.90;93.00;;;;;;5018577;27;20332;-49
2024/01/16 09:04:34;;;;;;;8.35;1.40;;;0.90;92.80;;;;;;5018758;28;20040;-50
2024/01/16 09:07:00;;;;;;;5.50;1.27;;;0.80;92.70;;;;;;5087390;27;20023;-48
2024/01/16 09:09:29;;;;;;;5.82;1.60;;;0.80;92.70;;;;;;5038811;27;20391;-52
2024/01/16 09:11:57;;;;;;;8.93;1.63;;;0.80;92.70;;;;;;5025722;28;20045;-50
2024/01/16 09:14:25;;;;;;;7.25;1.60;;;0.80;92.80;;;;;;5017751;28;20025;-49
2024/01/16 09:16:50;;;;;;;5.65;1.95;;;0.80;92.90;;;;;;5000753;28;20017;-49
2024/01/16 09:19:20;;;;;;;7.10;1.83;;;0.80;93.00;;;;;;5011440;28;20014;-56
2024/01/16 09:21:47;;;;;;;8.75;2.35;;;0.80;92.90;;;;;;5011145;27;20028;-53
2024/01/16 09:24:16;;;;;;;8.95;2.03;;;0.90;92.90;;;;;;5010807;27;20060;-56
2024/01/16 09:26:43;;;;;;;7.38;1.60;;;0.90;93.00;;;;;;5010216;27;20033;-55
2024/01/16 09:29:10;;;;;;;7.82;1.85;;;0.90;92.90;;;;;;5011113;28;20037;-54
2024/01/16 09:31:38;;;;;;;6.80;1.75;;;0.90;92.90;;;;;;5017050;27;20022;-54
2024/01/16 09:34:04;;;;;;;10.32;2.25;;;0.90;92.90;;;;;;5019296;27;20029;-55
2024/01/16 09:36:31;;;;;;;5.93;2.50;;;0.90;92.70;;;;;;5011970;27;20030;-54
2024/01/16 09:38:58;;;;;;;8.02;2.20;;;0.90;92.60;;;;;;5019226;28;20096;-56
2024/01/16 09:41:26;;;;;;;9.82;2.55;;;0.90;92.60;;;;;;5013041;27;20121;-55
2024/01/16 09:43:53;;;;;;;9.25;3.38;;;0.90;92.50;;;;;;5025710;27;20026;-56
2024/01/16 09:46:24;;;;;;;6.78;1.80;;;0.90;92.60;;;;;;5015755;27;20057;-56
2024/01/16 09:48:54;;;;;;;9.93;2.13;;;0.90;92.40;;;;;;5007954;28;20087;-57
2024/01/16 09:51:20;;;;;;;9.63;4.50;;;0.90;92.50;;;;;;5015582;28;20018;-58
2024/01/16 09:53:47;;;;;;;9.77;2.50;;;0.90;92.50;;;;;;4997601;28;20036;-55
2024/01/16 09:56:22;;;;;;;12.77;3.22;;;0.90;92.50;;;;;;5009850;27;20057;-56
2024/01/16 09:58:49;;;;;;;8.80;2.35;;;0.90;92.50;;;;;;5010744;27;20519;-55
2024/01/16 10:01:16;;;;;;;10.77;2.15;;;0.90;92.50;;;;;;5015520;28;20058;-57
2024/01/16 10:03:46;;;;;;;7.35;2.22;;;0.90;92.70;;;;;;5015794;28;20018;-56
2024/01/16 10:06:15;;;;;;;9.63;3.50;;;0.90;92.60;;;;;;4997619;28;20030;-56
2024/01/16 10:08:42;;;;;;;15.67;5.60;;;0.90;92.60;;;;;;5015292;28;20026;-56
2024/01/16 10:11:11;;;;;;;11.25;4.50;;;0.90;92.70;;;;;;5006137;28;20295;-56
2024/01/16 10:13:38;;;;;;;19.65;6.63;;;0.90;92.60;;;;;;4995715;28;20030;-54
2024/01/16 10:16:04;;;;;;;17.83;6.70;;;0.90;92.50;;;;;;5017136;28;20061;-56
2024/01/16 10:18:32;;;;;;;20.20;8.05;;;0.90;92.50;;;;;;5020544;28;20029;-54
2024/01/16 10:20:58;;;;;;;13.13;3.88;;;0.90;92.60;;;;;;5014116;28;20114;-54
2024/01/16 10:23:43;;;;;;;10.10;2.00;;;1.00;92.70;;;;;;5015759;28;20026;-52
2024/01/16 10:26:27;;;;;;;12.25;3.55;;;1.00;92.50;;;;;;5017935;27;20514;-52
2024/01/16 10:29:04;;;;;;;11.00;2.55;;;1.20;92.50;;;;;;5012040;28;20030;-52
2024/01/16 10:31:30;;;;;;;8.23;2.38;;;1.30;92.30;;;;;;5008938;27;20034;-49
2024/01/16 10:33:57;;;;;;;5.63;1.70;;;1.40;92.10;;;;;;5024354;27;20027;-52
2024/01/16 10:36:27;;;;;;;8.77;2.00;;;1.50;91.70;;;;;;5006938;28;20172;-51
2024/01/16 10:39:03;;;;;;;4.95;1.70;;;1.50;91.50;;;;;;5018092;28;20132;-51
2024/01/16 10:41:33;;;;;;;5.90;1.73;;;1.50;91.10;;;;;;5008198;28;20050;-51
2024/01/16 10:44:07;;;;;;;10.68;3.53;;;1.60;90.90;;;;;;4990313;28;20120;-52
2024/01/16 10:46:35;;;;;;;6.57;1.70;;;1.50;90.60;;;;;;5007829;28;20060;-51
2024/01/16 10:49:10;;;;;;;4.03;1.63;;;1.50;90.50;;;;;;5014431;28;20038;-50
2024/01/16 10:51:42;;;;;;;5.57;1.70;;;1.50;90.50;;;;;;5010528;28;20090;-52
2024/01/16 10:54:13;;;;;;;7.07;1.40;;;1.40;90.30;;;;;;5007153;28;20113;-50
2024/01/16 10:56:48;;;;;;;8.20;2.13;;;1.40;90.30;;;;;;5011759;28;20636;-50
2024/01/16 10:59:37;;;;;;;9.93;2.33;;;1.40;90.50;;;;;;5007449;28;20082;-51
2024/01/16 11:02:10;;;;;;;12.23;2.25;;;1.40;90.50;;;;;;5025786;28;20105;-52
2024/01/16 11:04:38;;;;;;;12.43;2.33;;;1.40;90.40;;;;;;5015204;28;20029;-49
2024/01/16 11:07:06;;;;;;;5.57;2.25;;;1.40;90.20;;;;;;5010102;28;20688;-50
2024/01/16 11:09:36;;;;;;;5.85;1.70;;;1.40;90.20;;;;;;5006622;28;20034;-49
2024/01/16 11:12:08;;;;;;;14.32;4.35;;;1.40;90.40;;;;;;5008033;28;20041;-52
2024/01/16 11:14:36;;;;;;;14.80;3.00;;;1.40;90.50;;;;;;5017899;28;20104;-49
2024/01/16 11:17:04;;;;;;;7.80;1.77;;;1.40;90.50;;;;;;4992557;28;20026;-50
2024/01/16 11:19:32;;;;;;;7.13;1.45;;;1.50;90.70;;;;;;5012083;28;20078;-52
2024/01/16 11:22:01;;;;;;;6.82;1.45;;;1.50;90.60;;;;;;5013346;28;20029;-51
2024/01/16 11:24:28;;;;;;;7.70;2.63;;;1.50;90.50;;;;;;5009385;28;20348;-49
2024/01/16 11:26:55;;;;;;;6.95;1.55;;;1.50;90.50;;;;;;5050562;28;20061;-51
2024/01/16 11:29:29;;;;;;;7.30;1.73;;;1.50;90.60;;;;;;5007145;28;20463;-51
2024/01/16 11:31:57;;;;;;;4.65;1.48;;;1.60;90.70;;;;;;5014790;28;20030;-50
2024/01/16 11:34:42;;;;;;;8.35;1.90;;;1.70;90.50;;;;;;5008669;28;20382;-51
2024/01/16 11:37:11;;;;;;;9.35;2.35;;;1.70;90.70;;;;;;5006580;28;20022;-50
2024/01/16 11:39:36;;;;;;;7.50;2.80;;;1.70;90.50;;;;;;4991777;28;20030;-51
2024/01/16 11:42:04;;;;;;;7.43;3.47;;;1.60;90.40;;;;;;5019311;28;20041;-53
2024/01/16 11:44:55;;;;;;;9.23;3.08;;;1.60;90.50;;;;;;5011578;28;20409;-52
2024/01/16 11:47:23;;;;;;;6.75;2.35;;;1.60;90.70;;;;;;5013357;28;20094;-54
2024/01/16 11:50:08;;;;;;;6.20;2.10;;;1.70;90.80;;;;;;5027848;28;20023;-53
2024/01/16 11:52:45;;;;;;;6.35;1.58;;;1.80;91.20;;;;;;5011096;28;20200;-51
2024/01/16 11:55:32;;;;;;;4.82;1.58;;;1.90;90.80;;;;;;5025304;28;20025;-55
2024/01/16 11:58:22;;;;;;;5.40;1.33;;;1.90;90.40;;;;;;5014733;28;20022;-54
2024/01/16 12:00:52;;;;;;;5.03;1.20;;;1.90;90.20;;;;;;5016309;28;20460;-52
2024/01/16 12:03:25;;;;;;;5.70;1.30;;;1.90;90.30;;;;;;5012449;28;20456;-53
2024/01/16 12:06:02;;;;;;;4.43;1.60;;;1.80;90.20;;;;;;5022064;28;20324;-58
2024/01/16 12:08:29;;;;;;;5.88;2.30;;;1.80;90.40;;;;;;5001867;28;20071;-55
2024/01/16 12:10:56;;;;;;;5.78;1.50;;;1.70;90.30;;;;;;5019850;28;20049;-57
2024/01/16 12:13:23;;;;;;;6.60;2.25;;;1.70;90.60;;;;;;5009507;28;20057;-56
2024/01/16 12:16:05;;;;;;;7.72;1.25;;;1.60;90.60;;;;;;5018115;27;20103;-57
2024/01/16 12:18:32;;;;;;;7.13;2.72;;;1.60;90.80;;;;;;5041953;27;20109;-56
2024/01/16 12:21:09;;;;;;;3.83;1.08;;;1.50;91.00;;;;;;5009292;28;20050;-57
2024/01/16 12:23:38;;;;;;;3.47;1.67;;;1.50;91.00;;;;;;5010990;28;20121;-53
2024/01/16 12:26:05;;;;;;;4.68;1.10;;;1.50;91.00;;;;;;5029860;27;20028;-53
2024/01/16 12:28:32;;;;;;;2.53;1.15;;;1.50;91.00;;;;;;5009229;28;20038;-58
2024/01/16 12:30:58;;;;;;;3.55;1.08;;;1.50;91.20;;;;;;5009173;27;20769;-54
2024/01/16 12:33:24;;;;;;;4.85;1.80;;;1.50;91.20;;;;;;5010770;28;20129;-57
2024/01/16 12:36:02;;;;;;;7.18;2.10;;;1.50;91.30;;;;;;5016216;27;20111;-53
2024/01/16 12:38:29;;;;;;;6.72;2.55;;;1.50;91.60;;;;;;5026963;28;20101;-53
2024/01/16 12:41:01;;;;;;;4.40;2.38;;;1.40;91.60;;;;;;5012394;27;20022;-55
2024/01/16 12:43:32;;;;;;;6.60;2.72;;;1.40;91.80;;;;;;5022485;27;20037;-56
2024/01/16 12:46:03;;;;;;;6.60;2.45;;;1.40;91.90;;;;;;4998728;28;20074;-57
2024/01/16 12:48:30;;;;;;;4.38;2.13;;;1.30;92.10;;;;;;4994716;28;20022;-54
2024/01/16 12:51:03;;;;;;;7.38;2.20;;;1.30;92.40;;;;;;5002377;28;20038;-52
2024/01/16 12:53:31;;;;;;;7.65;2.67;;;1.30;92.60;;;;;;4990797;28;20022;-54
2024/01/16 12:56:04;;;;;;;4.80;2.15;;;1.30;92.70;;;;;;5060114;28;20594;-55
2024/01/16 12:58:36;;;;;;;6.30;2.10;;;1.40;92.70;;;;;;4996925;28;20024;-56